Time;durP1;ratioP1;P1;durP2;ratioP2;P2;SDS_P1;SDS_P2;PMS_P1;PMS_P2;Temp;Humidity;BMP_temperature;BMP_pressure;BME280_temperature;BME280_humidity;BME280_pressure;Samples;Min_cycle;Max_cycle;Signal;HPM_P1;HPM_P2
2023/05/07 00:03:13;;;;;;;4.70;4.20;;;;;;;6.27;80.99;100329.61;220782;1256;140376;-67
2023/05/07 00:08:17;;;;;;;5.70;4.30;;;;;;;6.28;81.08;100327.85;219995;1257;139704;-67
2023/05/07 00:13:21;;;;;;;6.50;3.90;;;;;;;6.26;80.78;100332.14;219674;1257;139561;-67
2023/05/07 00:18:25;;;;;;;4.90;3.40;;;;;;;6.26;80.89;100330.80;220379;1256;139393;-67
2023/05/07 00:23:30;;;;;;;5.00;4.30;;;;;;;6.24;80.70;100334.69;218272;1256;140906;-67
2023/05/07 00:28:34;;;;;;;5.00;4.20;;;;;;;6.25;80.93;100341.34;219449;1255;140580;-67
2023/05/07 00:33:38;;;;;;;5.10;4.60;;;;;;;6.23;81.11;100343.61;218237;1257;139474;-66
2023/05/07 00:38:43;;;;;;;5.50;5.00;;;;;;;6.23;81.22;100343.55;218007;1256;140316;-66
2023/05/07 00:43:46;;;;;;;5.10;4.40;;;;;;;6.19;81.28;100347.91;218566;1256;139311;-66
2023/05/07 00:48:51;;;;;;;5.00;4.40;;;;;;;6.17;80.90;100349.24;218033;1256;141680;-67
2023/05/07 00:53:54;;;;;;;5.60;4.10;;;;;;;6.15;81.02;100355.82;218585;1255;140163;-66
2023/05/07 00:58:57;;;;;;;4.20;3.80;;;;;;;6.12;80.88;100354.38;217954;1256;140393;-67
2023/05/07 01:04:00;;;;;;;5.00;4.50;;;;;;;6.09;80.83;100354.61;217964;1256;139526;-66
2023/05/07 01:09:04;;;;;;;5.10;4.00;;;;;;;6.05;81.06;100355.27;217834;1257;139628;-66
2023/05/07 01:14:08;;;;;;;5.60;4.30;;;;;;;6.02;81.21;100354.72;218672;1256;139384;-67
2023/05/07 01:19:15;;;;;;;5.30;4.70;;;;;;;6.02;81.14;100352.64;218089;1257;140825;-67
2023/05/07 01:24:19;;;;;;;5.10;4.60;;;;;;;6.03;81.16;100358.75;218027;1256;139436;-66
2023/05/07 01:29:22;;;;;;;4.50;4.10;;;;;;;6.01;81.22;100365.52;218633;1257;139418;-67
2023/05/07 01:34:27;;;;;;;4.90;3.60;;;;;;;6.00;81.48;100370.60;217999;1257;139470;-67
2023/05/07 01:39:32;;;;;;;6.10;4.70;;;;;;;6.01;81.21;100375.42;219309;1254;139988;-66
2023/05/07 01:44:35;;;;;;;5.20;4.60;;;;;;;6.02;81.06;100373.19;220392;1256;140059;-67
2023/05/07 01:49:38;;;;;;;5.80;4.60;;;;;;;6.03;81.37;100379.36;220710;1254;139818;-68
2023/05/07 01:54:41;;;;;;;7.00;4.40;;;;;;;6.07;81.52;100377.61;220803;1255;141169;-68
2023/05/07 01:59:43;;;;;;;5.40;4.30;;;;;;;6.07;81.17;100380.09;220544;1257;139917;-67
2023/05/07 02:04:47;;;;;;;7.50;4.20;;;;;;;6.06;81.25;100386.52;220194;1256;140821;-67
2023/05/07 02:09:49;;;;;;;4.50;4.10;;;;;;;6.06;81.09;100394.53;218303;1257;139127;-67
2023/05/07 02:14:52;;;;;;;5.00;4.40;;;;;;;6.00;81.03;100396.10;218699;1258;139589;-67
2023/05/07 02:19:55;;;;;;;5.80;4.30;;;;;;;5.99;81.12;100395.92;217914;1257;139494;-66
2023/05/07 02:24:59;;;;;;;6.00;3.40;;;;;;;5.96;81.26;100397.23;217933;1258;139440;-66
2023/05/07 02:30:01;;;;;;;5.10;4.40;;;;;;;5.90;81.16;100399.11;218025;1256;139969;-66
2023/05/07 02:35:05;;;;;;;5.80;3.50;;;;;;;5.85;81.00;100397.77;219274;1258;163000;-66
2023/05/07 02:40:09;;;;;;;5.50;4.70;;;;;;;5.83;81.40;100397.17;218426;1256;140310;-66
2023/05/07 02:45:12;;;;;;;6.30;3.60;;;;;;;5.82;81.26;100401.86;218618;1257;141268;-66
2023/05/07 02:50:17;;;;;;;4.90;4.20;;;;;;;5.79;81.24;100397.44;218942;1257;139332;-66
2023/05/07 02:55:20;;;;;;;3.80;3.50;;;;;;;5.76;81.53;100401.70;218027;1258;139793;-66
2023/05/07 03:00:24;;;;;;;4.00;3.20;;;;;;;5.74;81.33;100402.60;217927;1259;208934;-66
2023/05/07 03:05:28;;;;;;;4.60;3.90;;;;;;;5.70;81.25;100406.63;218336;1256;139622;-66
2023/05/07 03:10:31;;;;;;;5.80;5.10;;;;;;;5.65;81.26;100405.67;218688;1259;140817;-66
2023/05/07 03:15:34;;;;;;;9.50;5.00;;;;;;;5.62;81.34;100407.59;219097;1257;139633;-66
2023/05/07 03:20:37;;;;;;;3.40;3.10;;;;;;;5.63;81.53;100412.96;218061;1257;139528;-66
2023/05/07 03:25:41;;;;;;;6.50;3.80;;;;;;;5.63;81.63;100420.25;218454;1255;140978;-67
2023/05/07 03:30:45;;;;;;;3.10;2.80;;;;;;;5.60;81.38;100424.64;218887;1257;139706;-66
2023/05/07 03:35:49;;;;;;;5.90;4.70;;;;;;;5.57;81.45;100426.20;218603;1257;230734;-66
2023/05/07 03:40:53;;;;;;;3.80;3.30;;;;;;;5.57;81.54;100430.63;218610;1257;139416;-66
2023/05/07 03:45:57;;;;;;;4.40;3.90;;;;;;;5.56;81.65;100437.62;218326;1258;140022;-66
2023/05/07 03:51:01;;;;;;;6.00;3.80;;;;;;;5.55;81.65;100444.84;220667;1254;141731;-67
2023/05/07 03:56:04;;;;;;;4.10;3.30;;;;;;;5.54;81.73;100448.66;219425;1255;139745;-67
2023/05/07 04:01:07;;;;;;;4.40;3.90;;;;;;;5.54;81.72;100458.74;219419;1256;140110;-66
2023/05/07 04:06:12;;;;;;;3.80;3.40;;;;;;;5.54;81.39;100460.25;219083;1255;142320;-66
2023/05/07 04:11:15;;;;;;;4.80;3.30;;;;;;;5.54;81.60;100464.16;218263;1258;139805;-66
2023/05/07 04:16:19;;;;;;;4.60;3.60;;;;;;;5.53;81.69;100474.35;219123;1256;140788;-66
2023/05/07 04:21:23;;;;;;;4.60;4.00;;;;;;;5.53;81.32;100480.00;217882;1256;232519;-66
2023/05/07 04:26:26;;;;;;;4.20;3.60;;;;;;;5.53;81.41;100482.25;217883;1257;152632;-66
2023/05/07 04:31:28;;;;;;;7.20;5.00;;;;;;;5.56;81.63;100485.78;218196;1257;140771;-66
2023/05/07 04:36:33;;;;;;;3.70;3.40;;;;;;;5.58;81.82;100490.82;218532;1259;141658;-67
2023/05/07 04:41:40;;;;;;;5.20;3.80;;;;;;;5.59;81.44;100490.38;218500;1259;139909;-66
2023/05/07 04:46:44;;;;;;;4.70;4.10;;;;;;;5.61;81.54;100498.80;218218;1256;139278;-66
2023/05/07 04:51:48;;;;;;;4.40;3.40;;;;;;;5.65;81.63;100507.20;217815;1256;139545;-66
2023/05/07 04:56:51;;;;;;;5.70;4.80;;;;;;;5.69;81.69;100516.12;217910;1257;141623;-66
2023/05/07 05:01:55;;;;;;;6.20;4.60;;;;;;;5.69;81.50;100519.83;218055;1257;141119;-66
2023/05/07 05:06:59;;;;;;;3.40;3.10;;;;;;;5.69;81.53;100521.21;218433;1257;140858;-66
2023/05/07 05:12:03;;;;;;;5.70;4.00;;;;;;;5.71;81.45;100523.44;218423;1257;153816;-67
2023/05/07 05:17:06;;;;;;;3.50;3.20;;;;;;;5.75;81.82;100531.14;218195;1256;139465;-67
2023/05/07 05:22:09;;;;;;;8.50;3.40;;;;;;;5.78;81.28;100536.14;218684;1256;141110;-67
2023/05/07 05:27:12;;;;;;;5.30;3.50;;;;;;;5.77;81.18;100544.34;218031;1257;139720;-66
2023/05/07 05:32:16;;;;;;;6.50;3.20;;;;;;;5.79;81.18;100549.21;218669;1255;140058;-67
2023/05/07 05:37:19;;;;;;;4.60;3.40;;;;;;;5.85;81.11;100559.94;220695;1256;140016;-67
2023/05/07 05:42:27;;;;;;;3.80;3.50;;;;;;;5.87;81.18;100562.00;220640;1256;140471;-68
2023/05/07 05:47:33;;;;;;;4.00;3.40;;;;;;;5.91;80.99;100559.16;220658;1256;140101;-67
2023/05/07 05:52:35;;;;;;;5.80;4.70;;;;;;;5.97;80.87;100566.17;220456;1256;140567;-68
2023/05/07 05:57:38;;;;;;;4.20;3.40;;;;;;;6.04;80.66;100560.64;218959;1255;140042;-69
2023/05/07 06:02:42;;;;;;;4.40;3.60;;;;;;;6.11;80.69;100560.02;217918;1256;140499;-66
2023/05/07 06:07:46;;;;;;;4.10;3.70;;;;;;;6.15;80.50;100562.63;219935;1256;139973;-67
2023/05/07 06:12:48;;;;;;;3.70;3.30;;;;;;;6.16;80.48;100560.96;217799;1257;139843;-66
2023/05/07 06:17:51;;;;;;;3.90;3.60;;;;;;;6.20;80.40;100563.06;217577;1257;139890;-67
2023/05/07 06:22:56;;;;;;;3.80;3.40;;;;;;;6.26;80.39;100567.33;218374;1259;139494;-67
2023/05/07 06:27:59;;;;;;;3.90;3.60;;;;;;;6.33;80.50;100578.65;217659;1259;141149;-67
2023/05/07 06:33:02;;;;;;;4.10;3.30;;;;;;;6.36;80.34;100584.37;217987;1257;140292;-70
2023/05/07 06:38:05;;;;;;;3.60;3.00;;;;;;;6.39;80.62;100584.96;218177;1257;139342;-69
2023/05/07 06:43:09;;;;;;;3.90;3.50;;;;;;;6.41;80.49;100589.27;218481;1257;139605;-68
2023/05/07 06:48:11;;;;;;;3.90;3.50;;;;;;;6.43;80.05;100586.73;218994;1256;139684;-68
2023/05/07 06:53:14;;;;;;;5.40;4.00;;;;;;;6.46;80.28;100593.08;217716;1259;140876;-67
2023/05/07 06:58:17;;;;;;;3.40;3.10;;;;;;;6.48;79.95;100599.30;217940;1259;141453;-66
2023/05/07 07:03:20;;;;;;;4.90;3.50;;;;;;;6.52;79.46;100594.95;217821;1259;139909;-68
2023/05/07 07:08:25;;;;;;;4.30;3.60;;;;;;;6.56;80.31;100596.42;218946;1259;139715;-65
2023/05/07 07:13:28;;;;;;;6.70;3.40;;;;;;;6.54;79.53;100607.73;218414;1257;141376;-67
2023/05/07 07:18:32;;;;;;;4.80;2.60;;;;;;;6.50;79.47;100619.86;217914;1259;139605;-67
2023/05/07 07:23:35;;;;;;;2.90;2.70;;;;;;;6.54;79.43;100631.52;220433;1257;141126;-67
2023/05/07 07:28:45;;;;;;;3.30;3.00;;;;;;;6.64;79.24;100629.33;218526;1257;140255;-66
2023/05/07 07:33:51;;;;;;;4.60;3.30;;;;;;;6.84;79.67;100630.14;220456;1257;140348;-68
2023/05/07 07:38:56;;;;;;;2.70;2.50;;;;;;;7.03;79.40;100632.45;220575;1257;140218;-68
2023/05/07 07:43:59;;;;;;;4.00;2.90;;;;;;;7.17;78.84;100640.53;220754;1256;140449;-68
2023/05/07 07:49:02;;;;;;;3.50;3.20;;;;;;;7.14;78.24;100646.98;220514;1258;139911;-68
2023/05/07 07:54:06;;;;;;;4.40;3.40;;;;;;;7.09;78.55;100656.77;219860;1257;141108;-67
2023/05/07 07:59:09;;;;;;;3.80;3.40;;;;;;;7.16;78.47;100659.33;219461;1257;140325;-68
2023/05/07 08:04:13;;;;;;;3.90;2.90;;;;;;;7.30;78.25;100657.62;218250;1259;140572;-68
2023/05/07 08:09:16;;;;;;;4.00;3.20;;;;;;;7.36;78.19;100654.19;217751;1260;139843;-67
2023/05/07 08:14:19;;;;;;;3.30;3.00;;;;;;;7.26;77.92;100656.29;218646;1256;140508;-68
2023/05/07 08:19:22;;;;;;;3.30;2.80;;;;;;;7.16;77.74;100654.59;218910;1259;139990;-67
2023/05/07 08:24:25;;;;;;;3.80;3.30;;;;;;;7.10;77.77;100661.67;218769;1258;139753;-67
2023/05/07 08:29:28;;;;;;;4.00;3.20;;;;;;;7.25;77.83;100667.90;217984;1259;140045;-68
2023/05/07 08:34:31;;;;;;;4.30;3.80;;;;;;;7.58;77.63;100673.52;217847;1260;139749;-68
2023/05/07 08:39:34;;;;;;;4.90;4.00;;;;;;;7.65;77.69;100679.70;217902;1259;140367;-68
2023/05/07 08:44:38;;;;;;;5.40;3.80;;;;;;;7.63;77.10;100682.84;218190;1260;139786;-68
2023/05/07 08:49:42;;;;;;;4.70;4.30;;;;;;;7.56;76.84;100692.95;218366;1258;142132;-68
2023/05/07 08:54:44;;;;;;;4.00;3.40;;;;;;;7.48;76.86;100705.70;217982;1258;139715;-68
2023/05/07 08:59:47;;;;;;;4.60;3.50;;;;;;;7.61;77.28;100704.41;218674;1260;140308;-68
2023/05/07 09:04:49;;;;;;;4.20;3.40;;;;;;;7.94;77.33;100704.33;218709;1257;139650;-68
2023/05/07 09:09:51;;;;;;;3.70;3.40;;;;;;;8.06;76.73;100713.10;218177;1256;140248;-68
2023/05/07 09:14:53;;;;;;;4.10;3.20;;;;;;;8.12;76.41;100715.45;218541;1258;140017;-67
2023/05/07 09:20:01;;;;;;;3.50;3.10;;;;;;;8.28;75.88;100718.92;218630;1259;140747;-67
2023/05/07 09:25:07;;;;;;;5.50;3.10;;;;;;;8.34;75.53;100720.54;218619;1257;139568;-68
2023/05/07 09:30:10;;;;;;;3.30;2.90;;;;;;;8.39;75.56;100724.38;218811;1257;139456;-68
2023/05/07 09:35:21;;;;;;;4.20;3.80;;;;;;;8.44;75.12;100727.19;218185;1257;139616;-69
2023/05/07 09:40:26;;;;;;;6.40;4.60;;;;;;;8.65;75.07;100723.55;220822;1257;141738;-69
2023/05/07 09:45:29;;;;;;;5.00;4.00;;;;;;;9.08;75.14;100725.34;220394;1256;140633;-70
2023/05/07 09:50:49;;;;;;;2.90;2.40;;;;;;;9.76;74.74;100722.84;220574;1255;139945;-69
2023/05/07 09:55:52;;;;;;;8.80;4.60;;;;;;;10.30;74.11;100723.51;219432;1260;139687;-68
2023/05/07 10:00:56;;;;;;;3.60;3.20;;;;;;;10.65;73.40;100721.10;218653;1254;139851;-68
2023/05/07 10:06:00;;;;;;;6.50;5.80;;;;;;;10.76;72.11;100723.75;218073;1256;139953;-67
2023/05/07 10:11:04;;;;;;;7.80;5.80;;;;;;;10.78;71.64;100737.25;218599;1256;139964;-67
2023/05/07 10:16:07;;;;;;;3.80;2.60;;;;;;;10.98;71.39;100740.23;217782;1260;139848;-69
2023/05/07 10:21:21;;;;;;;5.20;3.50;;;;;;;11.14;70.83;100736.79;217941;1260;140408;-69
2023/05/07 10:26:25;;;;;;;5.90;3.50;;;;;;;11.17;70.17;100741.25;217941;1257;139855;-69
2023/05/07 10:31:52;;;;;;;3.50;2.40;;;;;;;11.21;70.20;100737.55;217770;1257;139687;-68
2023/05/07 10:36:56;;;;;;;3.90;2.80;;;;;;;11.60;69.88;100732.83;218623;1259;140020;-68
2023/05/07 10:42:11;;;;;;;6.90;3.60;;;;;;;11.75;69.30;100738.27;217865;1259;139804;-68
2023/05/07 10:47:16;;;;;;;2.50;2.20;;;;;;;11.58;68.63;100744.63;217759;1257;233542;-68
2023/05/07 10:52:20;;;;;;;6.10;3.40;;;;;;;11.22;68.23;100744.86;218318;1260;139418;-67
2023/05/07 10:57:38;;;;;;;2.50;2.00;;;;;;;11.10;68.11;100745.27;217842;1258;141843;-68
2023/05/07 11:02:59;;;;;;;2.90;2.20;;;;;;;11.65;68.57;100735.25;218123;1260;141379;-69
2023/05/07 11:08:04;;;;;;;2.70;2.50;;;;;;;11.40;67.83;100743.37;217686;1257;140089;-67
2023/05/07 11:13:08;;;;;;;2.90;2.70;;;;;;;10.96;67.82;100754.29;220712;1257;140780;-68
2023/05/07 11:18:14;;;;;;;5.00;1.60;;;;;;;10.57;67.98;100763.09;218781;1256;141142;-68
2023/05/07 11:23:37;;;;;;;4.10;2.40;;;;;;;10.49;68.21;100762.70;220605;1257;140872;-68
2023/05/07 11:28:42;;;;;;;4.00;1.90;;;;;;;10.58;68.22;100762.97;220600;1255;139943;-71
2023/05/07 11:33:45;;;;;;;5.10;3.40;;;;;;;10.43;67.92;100772.15;220311;1257;140279;-69
2023/05/07 11:38:48;;;;;;;4.00;2.90;;;;;;;10.32;67.83;100776.69;217678;1260;140430;-66
2023/05/07 11:43:57;;;;;;;5.30;4.00;;;;;;;10.31;67.80;100780.17;219120;1255;140904;-67
2023/05/07 11:49:00;;;;;;;4.10;3.80;;;;;;;10.31;67.57;100789.68;218616;1259;140244;-71
2023/05/07 11:54:08;;;;;;;1.90;1.80;;;;;;;10.65;67.55;100787.30;218494;1258;140794;-67
2023/05/07 11:59:11;;;;;;;3.70;2.70;;;;;;;10.96;67.45;100789.10;219151;1257;139986;-65
2023/05/07 12:04:20;;;;;;;5.70;3.10;;;;;;;10.86;67.35;100796.73;218114;1257;140534;-67
2023/05/07 12:09:24;;;;;;;2.40;2.30;;;;;;;10.74;66.79;100805.20;217797;1257;139982;-70
2023/05/07 12:14:31;;;;;;;4.10;3.60;;;;;;;10.71;66.69;100811.61;218664;1256;141249;-66
2023/05/07 12:19:39;;;;;;;5.10;2.90;;;;;;;10.70;66.64;100806.45;217737;1257;139957;-65
2023/05/07 12:24:47;;;;;;;2.90;2.30;;;;;;;10.63;66.67;100811.16;217423;1260;140178;-66
2023/05/07 12:29:53;;;;;;;3.60;2.80;;;;;;;10.59;66.81;100824.33;218887;1257;141670;-66
2023/05/07 12:34:59;;;;;;;5.80;3.20;;;;;;;10.76;66.85;100821.83;217870;1259;141817;-65
2023/05/07 12:40:09;;;;;;;4.10;2.90;;;;;;;10.81;66.39;100815.24;217821;1257;140660;-68
2023/05/07 12:45:15;;;;;;;3.90;3.30;;;;;;;10.66;66.16;100822.10;217751;1257;140827;-68
2023/05/07 12:50:20;;;;;;;6.80;3.00;;;;;;;10.64;66.45;100822.44;217803;1257;140655;-68
2023/05/07 12:55:23;;;;;;;4.90;3.80;;;;;;;10.77;65.81;100827.23;217885;1259;141358;-66
2023/05/07 13:00:53;;;;;;;4.90;2.70;;;;;;;10.82;65.51;100830.55;217769;1257;139936;-69
2023/05/07 13:06:00;;;;;;;12.70;4.00;;;;;;;10.64;64.79;100835.06;218452;1257;139052;-67
2023/05/07 13:11:03;;;;;;;;;;;;;;;10.46;65.03;100839.28;217725;1257;140032;-70
2023/05/07 13:16:08;;;;;;;13.50;5.40;;;;;;;10.24;64.93;100841.99;220067;1256;126707;-68
2023/05/07 13:21:12;;;;;;;3.80;2.90;;;;;;;10.12;65.00;100847.08;218838;1257;141529;-67
2023/05/07 13:26:17;;;;;;;4.50;3.20;;;;;;;10.07;65.03;100843.81;220002;1256;139945;-69
2023/05/07 13:31:29;;;;;;;7.60;3.70;;;;;;;10.03;65.34;100839.19;220495;1254;141031;-69
2023/05/07 13:36:36;;;;;;;12.20;4.50;;;;;;;10.15;65.11;100836.31;220577;1256;140480;-68
2023/05/07 13:41:40;;;;;;;;;;;;;;;10.37;65.40;100834.61;220586;1254;142664;-68
2023/05/07 13:46:45;;;;;;;6.90;3.80;;;;;;;10.40;64.91;100834.73;218784;1256;126703;-68
2023/05/07 13:51:48;;;;;;;5.70;4.70;;;;;;;10.54;65.06;100833.52;218875;1256;140118;-69
2023/05/07 13:56:54;;;;;;;3.90;3.50;;;;;;;10.66;65.12;100839.71;218478;1256;140953;-69
2023/05/07 14:01:59;;;;;;;4.90;3.60;;;;;;;10.75;65.04;100839.30;217354;1257;140910;-68
2023/05/07 14:07:03;;;;;;;8.30;4.80;;;;;;;10.86;64.50;100836.04;219213;1256;140219;-67
2023/05/07 14:12:06;;;;;;;5.40;3.60;;;;;;;11.01;64.46;100832.26;218246;1256;140816;-69
2023/05/07 14:17:09;;;;;;;3.60;2.70;;;;;;;11.11;63.86;100829.38;218209;1257;139044;-69
2023/05/07 14:22:14;;;;;;;4.20;2.70;;;;;;;11.18;63.44;100834.70;218295;1256;139316;-68
2023/05/07 14:27:17;;;;;;;5.40;3.60;;;;;;;11.27;63.29;100841.15;217936;1259;139151;-69
2023/05/07 14:32:20;;;;;;;3.80;3.20;;;;;;;11.24;63.44;100845.06;217893;1259;141501;-68
2023/05/07 14:37:24;;;;;;;9.10;4.70;;;;;;;11.19;63.02;100851.15;218893;1256;139450;-69
2023/05/07 14:42:27;;;;;;;5.70;3.60;;;;;;;11.16;62.76;100861.27;217788;1256;139989;-68
2023/05/07 14:47:30;;;;;;;4.60;3.80;;;;;;;11.11;62.89;100860.98;217983;1259;139110;-68
2023/05/07 14:52:34;;;;;;;4.70;2.90;;;;;;;11.15;62.92;100861.18;217895;1254;140647;-68
2023/05/07 14:57:42;;;;;;;3.20;2.90;;;;;;;11.23;62.69;100862.80;217947;1257;140333;-74
2023/05/07 15:02:52;;;;;;;4.70;2.60;;;;;;;11.30;62.76;100862.61;218765;1256;143057;-71
2023/05/07 15:07:57;;;;;;;2.00;1.80;;;;;;;11.38;62.61;100863.38;218541;1256;207146;-70
2023/05/07 15:13:05;;;;;;;4.30;2.60;;;;;;;11.33;62.49;100861.98;220789;1253;140160;-68
2023/05/07 15:18:08;;;;;;;5.00;2.90;;;;;;;11.21;61.83;100872.51;219197;1256;139814;-66
2023/05/07 15:23:13;;;;;;;8.70;3.40;;;;;;;11.12;62.26;100873.46;218030;1257;140121;-71
2023/05/07 15:28:19;;;;;;;10.40;3.80;;;;;;;11.13;62.25;100880.52;219919;1255;139135;-70
2023/05/07 15:33:24;;;;;;;5.50;2.90;;;;;;;11.17;62.03;100880.56;219648;1256;140236;-69
2023/05/07 15:38:27;;;;;;;3.10;2.40;;;;;;;11.21;62.10;100877.77;220645;1256;140074;-67
2023/05/07 15:43:32;;;;;;;3.80;3.30;;;;;;;11.28;61.51;100881.34;220278;1256;139342;-68
2023/05/07 15:48:40;;;;;;;3.00;2.40;;;;;;;11.28;61.80;100883.53;219328;1256;140278;-69
2023/05/07 15:53:44;;;;;;;3.30;3.00;;;;;;;11.21;61.37;100883.51;218240;1254;139201;-69
2023/05/07 15:58:48;;;;;;;5.40;3.40;;;;;;;11.15;61.36;100884.30;219249;1257;139283;-73
2023/05/07 16:03:54;;;;;;;7.10;2.70;;;;;;;11.03;61.47;100886.55;218791;1258;139013;-65
2023/05/07 16:09:00;;;;;;;7.80;4.40;;;;;;;10.93;61.27;100889.05;217948;1258;140150;-70
2023/05/07 16:14:05;;;;;;;18.30;6.50;;;;;;;10.85;61.52;100893.33;217983;1257;139700;-67
2023/05/07 16:19:19;;;;;;;11.00;3.90;;;;;;;10.79;61.32;100897.60;218037;1256;141015;-72
2023/05/07 16:24:40;;;;;;;5.00;2.60;;;;;;;10.65;61.16;100898.33;218000;1258;139819;-72
2023/05/07 16:29:46;;;;;;;2.90;2.50;;;;;;;10.52;61.34;100898.98;218067;1257;139911;-71
2023/05/07 16:34:57;;;;;;;2.30;2.20;;;;;;;10.48;61.70;100899.02;218122;1257;139366;-69
2023/05/07 16:40:04;;;;;;;4.30;3.10;;;;;;;10.44;61.51;100898.73;218636;1254;140760;-70
2023/05/07 16:45:09;;;;;;;2.00;1.90;;;;;;;10.49;62.05;100901.61;217982;1254;139718;-73
2023/05/07 16:50:13;;;;;;;1.90;1.80;;;;;;;10.48;61.88;100898.45;218603;1256;140537;-73
2023/05/07 16:55:18;;;;;;;3.90;2.80;;;;;;;10.43;61.69;100895.52;218919;1257;139178;-71
2023/05/07 17:00:23;;;;;;;4.70;3.80;;;;;;;10.32;61.40;100902.20;218085;1254;141120;-68
2023/05/07 17:05:35;;;;;;;6.80;3.20;;;;;;;10.07;61.25;100906.80;219649;1254;139938;-73
2023/05/07 17:10:38;;;;;;;5.50;2.40;;;;;;;9.95;61.56;100898.99;219089;1254;139935;-70
2023/05/07 17:15:46;;;;;;;3.40;2.50;;;;;;;9.94;61.88;100904.28;217893;1254;139237;-70
2023/05/07 17:20:51;;;;;;;5.20;2.40;;;;;;;9.90;61.86;100903.78;219259;1254;139956;-69
2023/05/07 17:25:55;;;;;;;2.40;2.20;;;;;;;9.84;61.79;100915.19;220844;1254;149799;-71
2023/05/07 17:31:00;;;;;;;2.70;2.50;;;;;;;9.75;61.56;100917.55;220797;1254;139330;-68
2023/05/07 17:36:04;;;;;;;3.10;2.20;;;;;;;9.66;61.37;100918.42;220663;1254;139600;-67
2023/05/07 17:41:08;;;;;;;3.30;2.20;;;;;;;9.59;61.49;100927.89;219033;1255;139713;-67
2023/05/07 17:46:10;;;;;;;4.30;2.10;;;;;;;9.49;61.58;100936.41;218753;1256;139132;-72
2023/05/07 17:51:15;;;;;;;6.40;3.20;;;;;;;9.36;61.83;100939.07;217967;1256;140002;-69
2023/05/07 17:56:23;;;;;;;4.60;2.60;;;;;;;9.18;62.12;100939.54;218685;1256;140012;-70
2023/05/07 18:01:32;;;;;;;4.80;2.90;;;;;;;8.96;62.41;100942.69;219994;1254;140449;-70
2023/05/07 18:06:37;;;;;;;16.40;6.30;;;;;;;8.74;62.84;100941.50;217998;1256;139719;-73
2023/05/07 18:11:42;;;;;;;14.50;5.90;;;;;;;8.55;63.21;100943.55;218675;1257;140010;-73
2023/05/07 18:16:49;;;;;;;15.20;7.60;;;;;;;8.33;63.42;100954.31;217890;1257;140290;-71
2023/05/07 18:21:56;;;;;;;15.60;7.20;;;;;;;8.18;64.22;100952.52;217947;1256;139568;-69
2023/05/07 18:27:00;;;;;;;16.80;6.40;;;;;;;7.99;64.38;100952.61;218413;1255;139719;-68
2023/05/07 18:32:17;;;;;;;15.50;6.70;;;;;;;7.82;64.72;100960.14;218053;1254;140703;-67
2023/05/07 18:37:23;;;;;;;11.30;6.40;;;;;;;7.66;65.28;100965.00;218621;1254;139615;-67
2023/05/07 18:42:33;;;;;;;12.50;7.30;;;;;;;7.46;64.88;100967.77;217863;1257;139881;-67
2023/05/07 18:47:40;;;;;;;10.80;6.10;;;;;;;7.21;65.59;100969.31;217961;1254;140177;-66
2023/05/07 18:52:45;;;;;;;13.70;6.30;;;;;;;6.95;65.64;100973.51;218340;1256;139693;-68
2023/05/07 18:57:48;;;;;;;6.90;4.80;;;;;;;6.71;66.26;100978.63;218205;1257;140807;-66
2023/05/07 19:02:54;;;;;;;7.10;4.20;;;;;;;6.54;66.92;100989.14;218883;1256;139666;-66
2023/05/07 19:08:09;;;;;;;6.70;4.30;;;;;;;6.34;66.87;100990.15;218040;1254;139539;-69
2023/05/07 19:13:13;;;;;;;4.30;3.80;;;;;;;6.13;67.55;100995.91;219056;1257;140117;-67
2023/05/07 19:18:17;;;;;;;6.60;4.40;;;;;;;5.95;67.75;100999.48;217996;1256;139439;-65
2023/05/07 19:23:19;;;;;;;3.90;2.70;;;;;;;5.74;67.56;101004.80;220477;1256;141193;-68
2023/05/07 19:28:21;;;;;;;5.10;3.80;;;;;;;5.53;68.04;101004.67;220705;1256;140108;-66
2023/05/07 19:33:24;;;;;;;5.40;3.80;;;;;;;5.38;68.58;101004.90;220561;1256;140100;-66
2023/05/07 19:38:27;;;;;;;4.70;3.70;;;;;;;5.28;68.76;101011.20;220015;1256;139713;-68
2023/05/07 19:43:37;;;;;;;10.70;5.60;;;;;;;5.11;68.72;101020.99;219157;1254;141399;-64
2023/05/07 19:48:41;;;;;;;10.20;6.60;;;;;;;4.99;69.19;101021.77;218865;1257;140202;-68
2023/05/07 19:53:45;;;;;;;11.30;6.00;;;;;;;4.88;69.53;101023.00;217895;1254;139706;-64
2023/05/07 19:58:48;;;;;;;14.00;7.60;;;;;;;4.77;69.79;101024.95;218679;1257;140267;-68
2023/05/07 20:03:52;;;;;;;11.90;8.10;;;;;;;4.59;69.79;101029.60;217767;1255;139706;-68
2023/05/07 20:08:55;;;;;;;17.70;9.40;;;;;;;4.39;69.93;101032.31;218621;1254;140814;-66
2023/05/07 20:13:58;;;;;;;17.00;10.10;;;;;;;4.23;70.45;101036.29;218328;1254;139893;-67
2023/05/07 20:19:01;;;;;;;20.10;11.20;;;;;;;4.15;71.05;101047.02;218442;1254;140122;-63
2023/05/07 20:24:04;;;;;;;18.00;11.00;;;;;;;4.10;71.20;101048.26;218586;1254;141166;-68
2023/05/07 20:29:10;;;;;;;21.50;11.90;;;;;;;4.01;71.31;101047.73;217933;1256;141137;-66
2023/05/07 20:34:14;;;;;;;24.10;13.40;;;;;;;3.93;71.38;101045.18;218473;1254;140131;-66
2023/05/07 20:39:18;;;;;;;21.90;11.70;;;;;;;3.77;71.47;101049.61;217973;1256;141010;-63
2023/05/07 20:44:23;;;;;;;18.80;11.70;;;;;;;3.63;71.78;101057.05;218645;1254;139988;-65
2023/05/07 20:49:29;;;;;;;27.10;12.40;;;;;;;3.50;71.82;101061.86;218031;1254;141810;-65
2023/05/07 20:54:38;;;;;;;32.20;14.80;;;;;;;3.42;72.07;101064.30;217759;1257;140283;-64
2023/05/07 20:59:42;;;;;;;23.30;13.50;;;;;;;3.36;72.46;101068.86;217817;1254;141301;-65
2023/05/07 21:04:46;;;;;;;18.00;10.60;;;;;;;3.32;72.72;101071.45;218472;1256;140329;-65
2023/05/07 21:09:50;;;;;;;24.00;12.00;;;;;;;3.25;72.64;101072.73;219397;1254;139784;-66
2023/05/07 21:14:54;;;;;;;16.70;9.10;;;;;;;3.13;72.67;101079.39;220168;1254;140169;-66
2023/05/07 21:19:57;;;;;;;23.40;10.90;;;;;;;3.03;72.69;101076.02;220729;1254;139782;-66
2023/05/07 21:25:00;;;;;;;19.90;10.70;;;;;;;2.95;72.84;101085.92;220792;1256;141061;-66
2023/05/07 21:30:04;;;;;;;25.20;12.00;;;;;;;2.89;73.05;101088.57;220269;1259;140717;-66
2023/05/07 21:35:07;;;;;;;31.00;15.10;;;;;;;2.85;73.30;101092.31;218244;1257;140189;-65
2023/05/07 21:40:11;;;;;;;47.10;19.50;;;;;;;2.77;73.17;101088.06;218053;1257;139884;-65
2023/05/07 21:45:16;;;;;;;42.20;18.60;;;;;;;2.69;73.34;101089.02;220231;1256;140747;-67
2023/05/07 21:50:20;;;;;;;32.20;15.70;;;;;;;2.59;73.25;101092.64;217719;1257;140191;-66
2023/05/07 21:55:23;;;;;;;25.30;12.30;;;;;;;2.53;73.55;101098.30;217826;1257;142048;-66
2023/05/07 22:00:28;;;;;;;32.40;15.30;;;;;;;2.48;74.11;101104.63;218413;1257;140084;-65
2023/05/07 22:05:31;;;;;;;32.60;13.20;;;;;;;2.42;74.01;101103.80;218575;1257;139888;-63
2023/05/07 22:10:35;;;;;;;23.70;11.50;;;;;;;2.34;73.89;101106.48;218452;1256;139818;-68
2023/05/07 22:15:38;;;;;;;26.50;11.60;;;;;;;2.22;74.21;101105.20;217834;1257;139693;-67
2023/05/07 22:20:59;;;;;;;24.60;13.20;;;;;;;2.14;74.25;101103.38;218502;1257;140034;-64
2023/05/07 22:26:10;;;;;;;26.60;12.20;;;;;;;2.03;74.24;101109.83;219274;1254;139706;-64
2023/05/07 22:31:13;;;;;;;29.60;14.10;;;;;;;1.98;74.67;101110.62;218546;1254;139839;-66
2023/05/07 22:36:17;;;;;;;26.40;14.30;;;;;;;1.96;74.91;101115.36;217983;1254;140362;-65
2023/05/07 22:41:22;;;;;;;22.00;11.20;;;;;;;1.93;74.87;101110.05;218206;1254;139521;-65
2023/05/07 22:46:27;;;;;;;28.50;13.80;;;;;;;1.84;74.78;101107.11;217651;1256;1703322;-65
2023/05/07 22:51:31;;;;;;;25.10;11.70;;;;;;;1.75;74.73;101101.71;217799;1257;140193;-65
2023/05/07 22:56:34;;;;;;;24.10;11.30;;;;;;;1.71;75.36;101102.05;218560;1254;139960;-65
2023/05/07 23:01:39;;;;;;;21.40;11.50;;;;;;;1.67;75.45;101099.20;218909;1255;140477;-64
2023/05/07 23:06:43;;;;;;;24.30;11.10;;;;;;;1.62;75.25;101103.90;220635;1254;141166;-65
2023/05/07 23:11:46;;;;;;;26.90;14.00;;;;;;;1.55;75.24;101105.58;217984;1254;142474;-64